createdAt,value
2018-04-25T00:00:15.879Z,14.97
2018-04-25T00:01:15.857Z,15.04
2018-04-25T00:02:15.880Z,15.08
2018-04-25T00:03:15.885Z,15.01
2018-04-25T00:04:15.921Z,15.04
2018-04-25T00:05:15.972Z,15.04
2018-04-25T00:06:15.948Z,14.98
2018-04-25T00:07:15.965Z,15.08
2018-04-25T00:08:15.984Z,15.07
2018-04-25T00:09:16.009Z,15.02
2018-04-25T00:10:16.082Z,15.05
2018-04-25T00:11:16.059Z,15.05
2018-04-25T00:12:16.085Z,15.13
2018-04-25T00:13:16.103Z,15.12
2018-04-25T00:14:16.119Z,15.12
2018-04-25T00:15:16.184Z,15.15
2018-04-25T00:16:16.164Z,15.05
2018-04-25T00:17:16.186Z,15.05
2018-04-25T00:18:16.192Z,15.04
2018-04-25T00:19:16.222Z,15.04
2018-04-25T00:20:16.218Z,15.07
2018-04-25T00:21:16.263Z,15.05
2018-04-25T00:22:16.273Z,15.05
2018-04-25T00:23:16.287Z,15.00
2018-04-25T00:24:16.372Z,15.00
2018-04-25T00:25:16.376Z,15.04
2018-04-25T00:26:16.366Z,15.07
2018-04-25T00:27:16.374Z,15.07
2018-04-25T00:28:16.367Z,14.97
2018-04-25T00:29:16.421Z,14.94
2018-04-25T00:30:16.483Z,15.00
2018-04-25T00:31:16.459Z,15.05
2018-04-25T00:32:16.444Z,14.94
2018-04-25T00:33:16.468Z,15.01
2018-04-25T00:34:16.484Z,15.02
2018-04-25T00:35:16.502Z,14.97
2018-04-25T00:36:16.531Z,15.00
2018-04-25T00:37:16.545Z,14.98
2018-04-25T00:38:16.599Z,15.00
2018-04-25T00:39:16.619Z,15.01
2018-04-25T00:40:16.609Z,15.00
2018-04-25T00:41:16.628Z,14.97
2018-04-25T00:42:16.648Z,14.90
2018-04-25T00:43:16.665Z,15.01
2018-04-25T00:44:16.695Z,14.89
2018-04-25T00:45:16.709Z,14.98
2018-04-25T00:46:16.732Z,15.00
2018-04-25T00:47:16.750Z,14.93
2018-04-25T00:48:16.768Z,14.95
2018-04-25T00:49:16.791Z,14.89
2018-04-25T00:50:16.812Z,14.89
2018-04-25T00:51:16.831Z,14.89
2018-04-25T00:52:16.855Z,14.90
2018-04-25T00:53:16.871Z,14.87
2018-04-25T00:54:16.896Z,14.94
2018-04-25T00:55:16.909Z,14.90
2018-04-25T00:56:16.976Z,14.89
2018-04-25T00:57:16.959Z,14.85
2018-04-25T00:58:16.970Z,14.85
2018-04-25T00:59:16.992Z,14.93
2018-04-25T01:00:17.017Z,14.93
2018-04-25T01:01:17.032Z,14.89
2018-04-25T01:02:17.054Z,14.93
2018-04-25T01:03:17.073Z,14.89
2018-04-25T01:04:17.094Z,14.87
2018-04-25T01:05:17.117Z,14.89
2018-04-25T01:06:17.135Z,14.89
2018-04-25T01:07:17.159Z,14.94
2018-04-25T01:08:17.176Z,14.93
2018-04-25T01:09:17.202Z,14.86
2018-04-25T01:10:17.213Z,14.87
2018-04-25T01:11:17.243Z,14.93
2018-04-25T01:12:17.255Z,14.87
2018-04-25T01:13:17.279Z,14.85
2018-04-25T01:14:17.301Z,14.93
2018-04-25T01:15:17.323Z,14.83
2018-04-25T01:16:17.336Z,14.85
2018-04-25T01:17:17.357Z,14.86
2018-04-25T01:18:17.385Z,14.86
2018-04-25T01:19:17.404Z,14.90
2018-04-25T01:20:17.421Z,14.86
2018-04-25T01:21:17.446Z,14.86
2018-04-25T01:22:17.460Z,14.89
2018-04-25T01:23:17.485Z,14.86
2018-04-25T01:24:17.502Z,14.85
2018-04-25T01:25:17.528Z,14.90
2018-04-25T01:26:17.540Z,14.93
2018-04-25T01:27:17.569Z,14.87
2018-04-25T01:28:17.581Z,14.87
2018-04-25T01:29:17.605Z,14.85
2018-04-25T01:30:17.624Z,14.83
2018-04-25T01:31:17.647Z,14.83
2018-04-25T01:32:17.664Z,14.89
2018-04-25T01:33:17.691Z,14.89
2018-04-25T01:34:17.702Z,14.89
2018-04-25T01:35:17.731Z,14.85
2018-04-25T01:36:17.743Z,14.85
2018-04-25T01:37:17.771Z,14.83
2018-04-25T01:38:17.788Z,14.89
2018-04-25T01:39:17.806Z,14.89
2018-04-25T01:40:17.830Z,14.95
2018-04-25T01:41:17.845Z,14.86
2018-04-25T01:42:17.872Z,14.93
2018-04-25T01:43:17.885Z,14.87
2018-04-25T01:44:17.914Z,14.87
2018-04-25T01:45:17.936Z,14.90
2018-04-25T01:46:17.947Z,14.87
2018-04-25T01:47:17.969Z,14.89
2018-04-25T01:48:17.992Z,14.82
2018-04-25T01:49:18.008Z,14.86
2018-04-25T01:50:18.036Z,14.86
2018-04-25T01:51:18.054Z,14.89
2018-04-25T01:52:18.072Z,14.89
2018-04-25T01:53:18.095Z,14.89
2018-04-25T01:54:18.117Z,14.86
2018-04-25T01:55:18.135Z,14.93
2018-04-25T01:56:18.153Z,15.00
2018-04-25T01:57:18.172Z,14.89
2018-04-25T01:58:18.196Z,14.95
2018-04-25T01:59:18.219Z,14.93
2018-04-25T02:00:18.231Z,14.98
2018-04-25T02:01:18.253Z,14.94
2018-04-25T02:02:18.281Z,15.00
2018-04-25T02:03:18.298Z,14.97
2018-04-25T02:04:18.315Z,15.02
2018-04-25T02:05:18.345Z,15.01
2018-04-25T02:06:18.353Z,15.02
2018-04-25T02:07:18.377Z,15.00
2018-04-25T02:08:18.399Z,15.02
2018-04-25T02:09:18.417Z,15.00
2018-04-25T02:10:18.440Z,15.12
2018-04-25T02:11:18.457Z,15.04
2018-04-25T02:12:18.475Z,15.04
2018-04-25T02:13:18.498Z,15.08
2018-04-25T02:14:18.524Z,15.02
2018-04-25T02:15:18.542Z,15.13
2018-04-25T02:16:18.559Z,15.12
2018-04-25T02:17:18.586Z,15.12
2018-04-25T02:18:18.597Z,15.18
2018-04-25T02:19:18.629Z,15.12
2018-04-25T02:20:18.638Z,15.12
2018-04-25T02:21:18.665Z,15.15
2018-04-25T02:22:18.682Z,15.13
2018-04-25T02:23:18.704Z,15.25
2018-04-25T02:24:18.723Z,15.27
2018-04-25T02:25:18.746Z,15.33
2018-04-25T02:26:18.763Z,15.25
2018-04-25T02:27:18.785Z,15.34
2018-04-25T02:28:18.804Z,15.34
2018-04-25T02:29:18.831Z,15.35
2018-04-25T02:30:18.842Z,15.38
2018-04-25T02:31:18.871Z,15.38
2018-04-25T02:32:18.884Z,15.47
2018-04-25T02:33:18.903Z,15.47
2018-04-25T02:34:18.931Z,15.43
2018-04-25T02:35:18.975Z,15.45
2018-04-25T02:36:18.973Z,15.55
2018-04-25T02:37:18.988Z,15.58
2018-04-25T02:38:19.011Z,15.63
2018-04-25T02:39:19.028Z,15.56
2018-04-25T02:40:19.052Z,15.59
2018-04-25T02:41:19.073Z,15.58
2018-04-25T02:42:19.092Z,15.73
2018-04-25T02:43:19.109Z,15.67
2018-04-25T02:44:19.135Z,15.68
2018-04-25T02:45:19.148Z,15.70
2018-04-25T02:46:19.177Z,15.71
2018-04-25T02:47:19.190Z,15.78
2018-04-25T02:48:19.219Z,15.77
2018-04-25T02:49:19.238Z,15.81
2018-04-25T02:50:19.251Z,15.84
2018-04-25T02:51:19.274Z,15.81
2018-04-25T02:52:19.298Z,15.84
2018-04-25T02:53:19.312Z,15.91
2018-04-25T02:54:19.341Z,15.83
2018-04-25T02:55:19.361Z,15.83
2018-04-25T02:56:19.375Z,15.83
2018-04-25T02:57:19.394Z,15.92
2018-04-25T02:58:19.421Z,15.84
2018-04-25T02:59:19.434Z,15.92
2018-04-25T03:00:19.457Z,15.91
2018-04-25T03:01:19.477Z,15.86
2018-04-25T03:02:19.500Z,15.91
2018-04-25T03:03:19.525Z,15.96
2018-04-25T03:04:19.536Z,15.96
2018-04-25T03:05:19.563Z,15.91
2018-04-25T03:06:19.580Z,15.93
2018-04-25T03:07:19.598Z,15.95
2018-04-25T03:08:19.629Z,15.93
2018-04-25T03:09:19.643Z,15.92
2018-04-25T03:10:19.671Z,15.93
2018-04-25T03:11:19.688Z,15.95
2018-04-25T03:12:19.700Z,15.95
2018-04-25T03:13:19.724Z,15.89
2018-04-25T03:14:19.747Z,15.89
2018-04-25T03:15:19.765Z,15.92
2018-04-25T03:16:19.783Z,15.91
2018-04-25T03:17:19.803Z,15.91
2018-04-25T03:18:19.834Z,15.92
2018-04-25T03:19:19.857Z,15.84
2018-04-25T03:20:19.868Z,15.92
2018-04-25T03:21:19.889Z,15.80
2018-04-25T03:22:19.909Z,15.84
2018-04-25T03:23:19.925Z,15.83
2018-04-25T03:24:19.955Z,15.89
2018-04-25T03:25:19.976Z,15.84
2018-04-25T03:26:19.996Z,15.88
2018-04-25T03:27:20.008Z,15.89
2018-04-25T03:28:20.043Z,15.88
2018-04-25T03:29:20.050Z,15.91
2018-04-25T03:30:20.074Z,15.86
2018-04-25T03:31:20.091Z,15.86
2018-04-25T03:32:20.117Z,15.75
2018-04-25T03:33:20.135Z,15.77
2018-04-25T03:34:20.158Z,15.80
2018-04-25T03:35:20.181Z,15.78
2018-04-25T03:36:20.193Z,15.78
2018-04-25T03:37:20.222Z,15.70
2018-04-25T03:38:20.238Z,15.78
2018-04-25T03:39:20.262Z,15.80
2018-04-25T03:40:20.280Z,15.80
2018-04-25T03:41:20.305Z,15.73
2018-04-25T03:42:20.321Z,15.73
2018-04-25T03:43:20.346Z,15.74
2018-04-25T03:44:20.358Z,15.67
2018-04-25T03:45:20.382Z,15.71
2018-04-25T03:46:20.399Z,15.68
2018-04-25T03:47:20.422Z,15.63
2018-04-25T03:48:20.444Z,15.60
2018-04-25T03:49:20.460Z,15.74
2018-04-25T03:50:20.488Z,15.65
2018-04-25T03:51:20.506Z,15.70
2018-04-25T03:52:20.528Z,15.73
2018-04-25T03:53:20.546Z,15.70
2018-04-25T03:54:20.568Z,15.70
2018-04-25T03:55:20.591Z,15.63
2018-04-25T03:56:20.604Z,15.73
2018-04-25T03:57:20.630Z,15.63
2018-04-25T03:58:20.646Z,15.68
2018-04-25T03:59:20.664Z,15.70
2018-04-25T04:00:20.693Z,15.63
2018-04-25T04:01:20.707Z,15.67
2018-04-25T04:02:20.735Z,15.68
2018-04-25T04:03:20.751Z,15.70
2018-04-25T04:04:20.779Z,15.75
2018-04-25T04:05:20.790Z,15.68
2018-04-25T04:06:20.811Z,15.73
2018-04-25T04:07:20.836Z,15.67
2018-04-25T04:08:20.850Z,15.68
2018-04-25T04:09:20.876Z,15.70
2018-04-25T04:10:20.891Z,15.60
2018-04-25T04:11:20.912Z,15.65
2018-04-25T04:12:20.939Z,15.68
2018-04-25T04:13:20.954Z,15.70
2018-04-25T04:14:20.977Z,15.58
2018-04-25T04:15:21.001Z,15.58
2018-04-25T04:16:21.013Z,15.59
2018-04-25T04:17:21.041Z,15.63
2018-04-25T04:18:21.054Z,15.67
2018-04-25T04:19:21.084Z,15.56
2018-04-25T04:20:21.100Z,15.53
2018-04-25T04:21:21.120Z,15.62
2018-04-25T04:22:21.143Z,15.62
2018-04-25T04:23:21.165Z,15.59
2018-04-25T04:24:21.179Z,15.60
2018-04-25T04:25:21.199Z,15.62
2018-04-25T04:26:21.224Z,15.56
2018-04-25T04:27:21.240Z,15.56
2018-04-25T04:28:21.266Z,15.56
2018-04-25T04:29:21.280Z,15.60
2018-04-25T04:30:21.307Z,15.55
2018-04-25T04:31:21.322Z,15.59
2018-04-25T04:32:21.349Z,15.47
2018-04-25T04:33:21.361Z,15.59
2018-04-25T04:34:21.383Z,15.58
2018-04-25T04:35:21.405Z,15.53
2018-04-25T04:36:21.425Z,15.59
2018-04-25T04:37:21.446Z,15.65
2018-04-25T04:38:21.468Z,15.62
2018-04-25T04:39:21.492Z,15.59
2018-04-25T04:40:21.587Z,15.62
2018-04-25T04:41:21.525Z,15.56
2018-04-25T04:42:21.554Z,15.58
2018-04-25T04:43:21.566Z,15.60
2018-04-25T04:44:21.594Z,15.55
2018-04-25T04:45:21.609Z,15.62
2018-04-25T04:46:21.633Z,15.59
2018-04-25T04:47:21.649Z,15.60
2018-04-25T04:48:21.672Z,15.58
2018-04-25T04:49:21.697Z,15.53
2018-04-25T04:50:21.708Z,15.55
2018-04-25T04:51:21.736Z,15.56
2018-04-25T04:52:21.749Z,15.62
2018-04-25T04:53:21.769Z,15.58
2018-04-25T04:54:21.791Z,15.58
2018-04-25T04:55:21.817Z,15.59
2018-04-25T04:56:21.834Z,15.56
2018-04-25T04:57:21.859Z,15.56
2018-04-25T04:58:21.871Z,15.53
2018-04-25T04:59:21.899Z,15.56
2018-04-25T05:00:21.912Z,15.59
2018-04-25T05:01:22.310Z,15.59
2018-04-25T05:02:21.961Z,15.59
2018-04-25T05:03:21.973Z,15.62
2018-04-25T05:04:22.001Z,15.59
2018-04-25T05:05:22.015Z,15.55
2018-04-25T05:06:22.090Z,15.65
2018-04-25T05:07:22.084Z,15.56
2018-04-25T05:08:22.105Z,15.55
2018-04-25T05:09:22.137Z,15.56
2018-04-25T05:10:22.203Z,15.45
2018-04-25T05:11:22.180Z,15.51
2018-04-25T05:12:22.194Z,15.45
2018-04-25T05:13:22.222Z,15.45
2018-04-25T05:14:22.205Z,15.58
2018-04-25T05:15:22.304Z,15.53
2018-04-25T05:16:22.252Z,15.47
2018-04-25T05:17:22.298Z,15.49
2018-04-25T05:18:22.306Z,15.51
2018-04-25T05:19:22.329Z,15.47
2018-04-25T05:20:22.409Z,15.47
2018-04-25T05:21:22.374Z,15.44
2018-04-25T05:22:22.389Z,15.45
2018-04-25T05:23:22.415Z,15.47
2018-04-25T05:24:22.414Z,15.44
2018-04-25T05:25:22.431Z,15.49
2018-04-25T05:26:22.454Z,15.47
2018-04-25T05:27:22.468Z,15.45
2018-04-25T05:28:22.489Z,15.43
2018-04-25T05:29:22.510Z,15.41
2018-04-25T05:30:22.528Z,15.35
2018-04-25T05:31:22.545Z,15.30
2018-04-25T05:32:22.574Z,15.37
2018-04-25T05:33:22.590Z,15.34
2018-04-25T05:34:22.611Z,15.43
2018-04-25T05:35:22.637Z,15.33
2018-04-25T05:36:22.647Z,15.30
2018-04-25T05:37:22.675Z,15.31
2018-04-25T05:38:22.693Z,15.41
2018-04-25T05:39:22.711Z,15.26
2018-04-25T05:40:22.728Z,15.30
2018-04-25T05:41:22.749Z,15.22
2018-04-25T05:42:22.784Z,15.12
2018-04-25T05:43:22.796Z,15.08
2018-04-25T05:44:22.814Z,14.94
2018-04-25T05:45:22.839Z,14.83
2018-04-25T05:46:22.850Z,14.56
2018-04-25T05:47:22.874Z,14.33
2018-04-25T05:48:22.897Z,14.12
2018-04-25T05:49:22.917Z,14.13
2018-04-25T05:50:22.940Z,14.08
2018-04-25T05:51:22.958Z,13.88
2018-04-25T05:52:22.975Z,13.86
2018-04-25T05:53:22.993Z,13.78
2018-04-25T05:54:23.020Z,13.70
2018-04-25T05:55:23.035Z,13.69
2018-04-25T05:56:23.057Z,13.62
2018-04-25T05:57:23.077Z,13.57
2018-04-25T05:58:23.099Z,13.54
2018-04-25T05:59:23.122Z,13.53
2018-04-25T06:00:23.133Z,13.50
2018-04-25T06:01:23.160Z,13.54
2018-04-25T06:02:23.177Z,13.58
2018-04-25T06:03:23.200Z,13.58
2018-04-25T06:04:23.216Z,13.57
2018-04-25T06:05:23.243Z,13.48
2018-04-25T06:06:23.253Z,13.51
2018-04-25T06:07:23.283Z,13.50
2018-04-25T06:08:23.294Z,13.53
2018-04-25T06:09:23.323Z,13.54
2018-04-25T06:10:23.333Z,13.55
2018-04-25T06:11:23.362Z,13.55
2018-04-25T06:12:23.464Z,13.58
2018-04-25T06:13:23.486Z,13.51
2018-04-25T06:14:23.418Z,13.45
2018-04-25T06:15:23.443Z,13.44
2018-04-25T06:16:23.458Z,13.55
2018-04-25T06:17:23.476Z,13.57
2018-04-25T06:18:23.500Z,13.58
2018-04-25T06:19:23.516Z,13.55
2018-04-25T06:20:23.619Z,13.48
2018-04-25T06:21:23.555Z,13.58
2018-04-25T06:22:23.582Z,13.50
2018-04-25T06:23:23.594Z,13.58
2018-04-25T06:24:23.622Z,13.57
2018-04-25T06:25:23.634Z,13.55
2018-04-25T06:26:23.661Z,13.66
2018-04-25T06:27:23.673Z,13.70
2018-04-25T06:28:23.702Z,13.72
2018-04-25T06:29:23.717Z,13.87
2018-04-25T06:30:23.739Z,14.09
2018-04-25T06:31:23.761Z,14.02
2018-04-25T06:32:23.781Z,14.12
2018-04-25T06:33:23.799Z,14.08
2018-04-25T06:34:23.815Z,13.95
2018-04-25T06:35:23.924Z,14.06
2018-04-25T06:36:23.865Z,14.06
2018-04-25T06:37:23.876Z,13.97
2018-04-25T06:38:23.898Z,14.28
2018-04-25T06:39:23.980Z,14.79
2018-04-25T06:40:23.933Z,14.82
2018-04-25T06:41:23.962Z,14.67
2018-04-25T06:42:23.978Z,14.66
2018-04-25T06:43:23.995Z,14.83
2018-04-25T06:44:24.013Z,15.34
2018-04-25T06:45:24.035Z,15.98
2018-04-25T06:46:24.062Z,15.58
2018-04-25T06:47:24.079Z,15.01
2018-04-25T06:48:24.097Z,14.83
2018-04-25T06:49:24.118Z,14.61
2018-04-25T06:50:24.141Z,14.57
2018-04-25T06:51:24.165Z,14.56
2018-04-25T06:52:24.176Z,14.74
2018-04-25T06:53:24.202Z,14.57
2018-04-25T06:54:24.217Z,14.57
2018-04-25T06:55:24.240Z,14.63
2018-04-25T06:56:24.268Z,14.83
2018-04-25T06:57:24.286Z,14.80
2018-04-25T06:58:24.309Z,15.30
2018-04-25T06:59:24.320Z,15.59
2018-04-25T07:00:24.346Z,15.60
2018-04-25T07:01:24.367Z,15.31
2018-04-25T07:02:24.390Z,15.19
2018-04-25T07:03:24.414Z,14.97
2018-04-25T07:04:24.426Z,15.27
2018-04-25T07:05:24.447Z,15.19
2018-04-25T07:06:24.475Z,15.10
2018-04-25T07:07:24.583Z,15.18
2018-04-25T07:08:24.515Z,15.30
2018-04-25T07:09:24.535Z,16.37
2018-04-25T07:10:24.556Z,16.81
2018-04-25T07:11:24.582Z,16.10
2018-04-25T07:12:24.594Z,16.88
2018-04-25T07:13:24.701Z,17.46
2018-04-25T07:14:24.639Z,17.42
2018-04-25T07:15:24.667Z,17.06
2018-04-25T07:16:24.680Z,17.32
2018-04-25T07:17:24.707Z,18.21
2018-04-25T07:18:24.726Z,17.35
2018-04-25T07:19:24.751Z,16.77
2018-04-25T07:20:24.774Z,16.16
2018-04-25T07:21:24.799Z,15.96
2018-04-25T07:22:24.876Z,15.89
2018-04-25T07:23:24.842Z,15.60
2018-04-25T07:24:24.856Z,15.43
2018-04-25T07:25:24.884Z,15.31
2018-04-25T07:26:24.904Z,15.33
2018-04-25T07:27:24.928Z,15.22
2018-04-25T07:28:24.948Z,15.15
2018-04-25T07:29:24.979Z,15.12
2018-04-25T07:30:24.998Z,15.19
2018-04-25T07:31:25.012Z,15.25
2018-04-25T07:32:25.042Z,15.59
2018-04-25T07:33:25.058Z,15.88
2018-04-25T07:34:25.082Z,16.67
2018-04-25T07:35:25.171Z,16.95
2018-04-25T07:36:25.127Z,17.00
2018-04-25T07:37:25.152Z,16.62
2018-04-25T07:38:25.168Z,16.33
2018-04-25T07:39:25.192Z,15.93
2018-04-25T07:40:25.211Z,15.91
2018-04-25T07:41:25.234Z,15.71
2018-04-25T07:42:25.259Z,15.60
2018-04-25T07:43:25.278Z,15.59
2018-04-25T07:44:25.304Z,15.44
2018-04-25T07:45:25.328Z,15.43
2018-04-25T07:46:25.347Z,15.49
2018-04-25T07:47:25.370Z,15.55
2018-04-25T07:48:25.390Z,15.81
2018-04-25T07:49:25.438Z,15.60
2018-04-25T07:50:25.437Z,15.30
2018-04-25T07:51:25.456Z,15.04
2018-04-25T07:52:25.475Z,14.93
2018-04-25T07:53:25.496Z,14.80
2018-04-25T07:54:25.521Z,14.80
2018-04-25T07:55:25.548Z,14.67
2018-04-25T07:56:25.559Z,14.60
2018-04-25T07:57:25.585Z,14.46
2018-04-25T07:58:25.604Z,14.44
2018-04-25T07:59:25.625Z,14.42
2018-04-25T08:00:25.652Z,14.42
2018-04-25T08:01:25.672Z,14.42
2018-04-25T08:02:25.689Z,14.46
2018-04-25T08:03:25.714Z,14.64
2018-04-25T08:04:25.742Z,14.89
2018-04-25T08:05:25.759Z,14.97
2018-04-25T08:06:25.777Z,14.98
2018-04-25T08:07:25.801Z,14.75
2018-04-25T08:08:25.816Z,14.90
2018-04-25T08:09:25.836Z,14.97
2018-04-25T08:10:25.863Z,15.12
2018-04-25T08:11:25.878Z,15.91
2018-04-25T08:12:25.984Z,16.17
2018-04-25T08:13:25.924Z,16.02
2018-04-25T08:14:25.946Z,16.29
2018-04-25T08:15:25.967Z,16.45
2018-04-25T08:16:25.989Z,16.06
2018-04-25T08:17:26.015Z,16.07
2018-04-25T08:18:26.026Z,15.59
2018-04-25T08:19:26.050Z,15.51
2018-04-25T08:20:26.068Z,15.56
2018-04-25T08:21:26.091Z,15.38
2018-04-25T08:22:26.114Z,15.19
2018-04-25T08:23:26.139Z,15.30
2018-04-25T08:24:26.158Z,15.34
2018-04-25T08:25:26.182Z,15.63
2018-04-25T08:26:26.203Z,16.39
2018-04-25T08:27:26.222Z,16.52
2018-04-25T08:28:26.247Z,16.81
2018-04-25T08:29:26.263Z,17.32
2018-04-25T08:30:26.293Z,18.51
2018-04-25T08:31:26.306Z,17.39
2018-04-25T08:32:26.337Z,16.81
2018-04-25T08:33:26.405Z,16.27
2018-04-25T08:34:26.375Z,16.02
2018-04-25T08:35:26.396Z,16.14
2018-04-25T08:36:26.421Z,16.72
2018-04-25T08:37:26.442Z,16.48
2018-04-25T08:38:26.461Z,16.27
2018-04-25T08:39:26.492Z,16.26
2018-04-25T08:40:26.507Z,16.13
2018-04-25T08:41:26.532Z,17.21
2018-04-25T08:42:26.559Z,18.75
2018-04-25T08:43:26.586Z,19.56
2018-04-25T08:44:26.603Z,19.56
2018-04-25T08:45:26.628Z,19.37
2018-04-25T08:46:26.641Z,19.83
2018-04-25T08:47:26.671Z,19.55
2018-04-25T08:48:26.695Z,18.87
2018-04-25T08:49:26.721Z,19.20
2018-04-25T08:50:26.740Z,18.31
2018-04-25T08:51:26.769Z,19.19
2018-04-25T08:52:26.783Z,19.37
2018-04-25T08:53:26.807Z,19.80
2018-04-25T08:54:26.840Z,18.39
2018-04-25T08:55:26.855Z,18.90
2018-04-25T08:56:26.883Z,18.82
2018-04-25T08:57:26.913Z,18.96
2018-04-25T08:58:26.929Z,18.05
2018-04-25T08:59:26.957Z,17.83
2018-04-25T09:00:26.983Z,18.16
2018-04-25T09:01:27.003Z,19.46
2018-04-25T09:02:27.037Z,18.38
2018-04-25T09:03:27.060Z,18.24
2018-04-25T09:04:27.082Z,18.13
2018-04-25T09:05:27.106Z,17.79
2018-04-25T09:06:27.131Z,17.06
2018-04-25T09:07:27.161Z,17.80
2018-04-25T09:08:27.187Z,19.00
2018-04-25T09:09:27.217Z,19.38
2018-04-25T09:10:27.230Z,20.05
2018-04-25T09:11:27.262Z,20.49
2018-04-25T09:12:27.282Z,19.75
2018-04-25T09:13:27.305Z,20.34
2018-04-25T09:14:27.338Z,20.12
2018-04-25T09:15:27.446Z,18.99
2018-04-25T09:16:27.392Z,18.90
2018-04-25T09:17:27.413Z,19.50
2018-04-25T09:18:27.439Z,18.53
2018-04-25T09:19:27.463Z,17.99
2018-04-25T09:20:27.491Z,18.84
2018-04-25T09:21:27.520Z,18.89
2018-04-25T09:22:27.536Z,18.19
2018-04-25T09:23:27.566Z,18.63
2018-04-25T09:24:27.590Z,18.38
2018-04-25T09:25:27.618Z,17.60
2018-04-25T09:26:27.644Z,17.57
2018-04-25T09:27:27.679Z,17.95
2018-04-25T09:28:27.695Z,18.69
2018-04-25T09:29:27.728Z,18.86
2018-04-25T09:30:27.744Z,17.86
2018-04-25T09:31:27.782Z,18.59
2018-04-25T09:32:27.795Z,19.07
2018-04-25T09:33:27.828Z,18.60
2018-04-25T09:34:27.954Z,17.79
2018-04-25T09:35:27.877Z,17.46
2018-04-25T09:36:27.903Z,17.36
2018-04-25T09:37:27.929Z,17.32
2018-04-25T09:38:27.950Z,17.92
2018-04-25T09:39:27.973Z,18.44
2018-04-25T09:40:28.008Z,19.74
2018-04-25T09:41:28.027Z,19.72
2018-04-25T09:42:28.052Z,18.61
2018-04-25T09:43:28.083Z,17.81
2018-04-25T09:44:28.105Z,17.24
2018-04-25T09:45:28.126Z,17.02
2018-04-25T09:46:28.159Z,16.80
2018-04-25T09:47:28.178Z,16.66
2018-04-25T09:48:28.209Z,16.65
2018-04-25T09:49:28.230Z,16.55
2018-04-25T09:50:28.255Z,16.65
2018-04-25T09:51:28.282Z,16.51
2018-04-25T09:52:28.308Z,16.36
2018-04-25T09:53:28.338Z,16.37
2018-04-25T09:54:28.356Z,16.32
2018-04-25T09:55:28.381Z,16.16
2018-04-25T09:56:28.404Z,15.98
2018-04-25T09:57:28.616Z,16.04
2018-04-25T09:58:28.451Z,15.96
2018-04-25T09:59:28.473Z,16.00
2018-04-25T10:00:28.495Z,15.70
2018-04-25T10:01:28.517Z,15.58
2018-04-25T10:02:28.543Z,15.38
2018-04-25T10:03:28.569Z,15.23
2018-04-25T10:04:28.584Z,15.10
2018-04-25T10:05:28.607Z,15.15
2018-04-25T10:06:28.638Z,15.04
2018-04-25T10:07:28.657Z,15.01
2018-04-25T10:08:28.678Z,14.98
2018-04-25T10:09:28.712Z,15.05
2018-04-25T10:10:28.727Z,14.98
2018-04-25T10:11:28.742Z,15.01
2018-04-25T10:12:28.767Z,15.04
2018-04-25T10:13:28.790Z,15.01
2018-04-25T10:14:28.813Z,14.98
2018-04-25T10:15:28.833Z,15.04
2018-04-25T10:16:28.859Z,14.94
2018-04-25T10:17:28.874Z,14.87
2018-04-25T10:18:28.903Z,14.98
2018-04-25T10:19:28.922Z,15.01
2018-04-25T10:20:28.948Z,14.97
2018-04-25T10:21:28.964Z,14.94
2018-04-25T10:22:28.992Z,15.02
2018-04-25T10:23:29.009Z,14.98
2018-04-25T10:24:29.031Z,15.07
2018-04-25T10:25:29.057Z,15.04
2018-04-25T10:26:29.073Z,15.12
2018-04-25T10:27:29.095Z,15.08
2018-04-25T10:28:29.120Z,15.30
2018-04-25T10:29:29.133Z,15.38
2018-04-25T10:30:29.162Z,15.34
2018-04-25T10:31:29.182Z,15.38
2018-04-25T10:32:29.205Z,15.34
2018-04-25T10:33:29.229Z,15.16
2018-04-25T10:34:29.239Z,15.10
2018-04-25T10:35:29.270Z,15.13
2018-04-25T10:36:29.282Z,15.26
2018-04-25T10:37:29.309Z,15.19
2018-04-25T10:38:29.327Z,15.30
2018-04-25T10:39:29.356Z,15.25
2018-04-25T10:40:29.441Z,15.26
2018-04-25T10:41:29.389Z,15.23
2018-04-25T10:42:29.412Z,15.16
2018-04-25T10:43:29.435Z,15.04
2018-04-25T10:44:29.454Z,15.05
2018-04-25T10:45:29.480Z,15.07
2018-04-25T10:46:29.494Z,15.01
2018-04-25T10:47:29.517Z,14.87
2018-04-25T10:48:29.540Z,14.97
2018-04-25T10:49:29.557Z,14.98
2018-04-25T10:50:29.586Z,15.05
2018-04-25T10:51:29.598Z,15.19
2018-04-25T10:52:29.628Z,15.59
2018-04-25T10:53:29.645Z,15.92
2018-04-25T10:54:29.667Z,15.96
2018-04-25T10:55:29.859Z,15.86
2018-04-25T10:56:29.713Z,15.84
2018-04-25T10:57:29.734Z,15.78
2018-04-25T10:58:29.751Z,15.78
2018-04-25T10:59:29.776Z,15.68
2018-04-25T11:00:29.794Z,15.65
2018-04-25T11:01:29.813Z,15.86
2018-04-25T11:02:29.863Z,16.06
2018-04-25T11:03:29.857Z,16.49
2018-04-25T11:04:29.961Z,16.52
2018-04-25T11:05:29.902Z,16.65
2018-04-25T11:06:29.922Z,16.45
2018-04-25T11:07:30.002Z,16.30
2018-04-25T11:08:29.960Z,16.26
2018-04-25T11:09:29.984Z,16.65
2018-04-25T11:10:30.011Z,16.69
2018-04-25T11:11:30.033Z,16.66
2018-04-25T11:12:30.049Z,16.54
2018-04-25T11:13:30.067Z,16.54
2018-04-25T11:14:30.091Z,16.54
2018-04-25T11:15:30.111Z,16.14
2018-04-25T11:16:30.140Z,16.17
2018-04-25T11:17:30.165Z,16.17
2018-04-25T11:18:30.178Z,16.32
2018-04-25T11:19:30.207Z,16.44
2018-04-25T11:20:30.226Z,16.44
2018-04-25T11:21:30.240Z,16.45
2018-04-25T11:22:30.270Z,16.21
2018-04-25T11:23:30.285Z,16.16
2018-04-25T11:24:30.314Z,15.95
2018-04-25T11:25:30.331Z,15.91
2018-04-25T11:26:30.409Z,15.81
2018-04-25T11:27:30.375Z,15.86
2018-04-25T11:28:30.399Z,15.62
2018-04-25T11:29:30.423Z,15.73
2018-04-25T11:30:30.442Z,15.67
2018-04-25T11:31:30.468Z,15.60
2018-04-25T11:32:30.479Z,15.71
2018-04-25T11:33:30.501Z,15.89
2018-04-25T11:34:30.531Z,15.86
2018-04-25T11:35:30.549Z,15.67
2018-04-25T11:36:30.569Z,15.37
2018-04-25T11:37:30.596Z,15.22
2018-04-25T11:38:30.610Z,15.18
2018-04-25T11:39:30.640Z,15.02
2018-04-25T11:40:30.653Z,14.95
2018-04-25T11:41:30.681Z,14.94
2018-04-25T11:42:30.697Z,15.00
2018-04-25T11:43:30.723Z,15.07
2018-04-25T11:44:30.742Z,15.15
2018-04-25T11:45:30.767Z,15.16
2018-04-25T11:46:30.793Z,15.22
2018-04-25T11:47:30.802Z,15.05
2018-04-25T11:48:30.834Z,15.05
2018-04-25T11:49:30.851Z,15.02
2018-04-25T11:50:30.875Z,15.12
2018-04-25T11:51:30.896Z,15.15
2018-04-25T11:52:30.915Z,15.18
2018-04-25T11:53:30.936Z,15.22
2018-04-25T11:54:30.955Z,15.19
2018-04-25T11:55:30.979Z,15.12
2018-04-25T11:56:31.000Z,15.13
2018-04-25T11:57:31.025Z,15.13
2018-04-25T11:58:31.038Z,15.13
2018-04-25T11:59:31.067Z,15.23
2018-04-25T12:00:31.081Z,15.38
2018-04-25T12:01:31.109Z,15.45
2018-04-25T12:02:31.121Z,15.33
2018-04-25T12:03:31.150Z,15.33
2018-04-25T12:04:31.165Z,15.07
2018-04-25T12:05:31.191Z,14.95
2018-04-25T12:06:31.208Z,14.95
2018-04-25T12:07:31.232Z,14.93
2018-04-25T12:08:31.252Z,15.02
2018-04-25T12:09:31.278Z,15.15
2018-04-25T12:10:31.340Z,15.08
2018-04-25T12:11:31.316Z,15.08
2018-04-25T12:12:31.337Z,14.95
2018-04-25T12:13:31.360Z,14.87
2018-04-25T12:14:31.395Z,14.83
2018-04-25T12:15:31.395Z,14.67
2018-04-25T12:16:31.427Z,14.71
2018-04-25T12:17:31.447Z,14.74
2018-04-25T12:18:31.460Z,14.75
2018-04-25T12:19:31.481Z,14.71
2018-04-25T12:20:31.510Z,14.70
2018-04-25T12:21:31.539Z,14.69
2018-04-25T12:22:31.544Z,14.77
2018-04-25T12:23:31.567Z,14.86
2018-04-25T12:24:31.590Z,15.00
2018-04-25T12:25:31.611Z,14.80
2018-04-25T12:26:31.630Z,14.87
2018-04-25T12:27:31.656Z,15.02
2018-04-25T12:28:31.676Z,15.01
2018-04-25T12:29:31.716Z,15.16
2018-04-25T12:30:31.709Z,15.23
2018-04-25T12:31:31.733Z,15.35
2018-04-25T12:32:31.761Z,15.30
2018-04-25T12:33:31.776Z,15.16
2018-04-25T12:34:31.795Z,15.04
2018-04-25T12:35:31.817Z,15.15
2018-04-25T12:36:31.841Z,15.20
2018-04-25T12:37:31.862Z,15.18
2018-04-25T12:38:31.880Z,15.13
2018-04-25T12:39:31.899Z,15.01
2018-04-25T12:40:31.951Z,14.87
2018-04-25T12:41:32.002Z,15.00
2018-04-25T12:42:31.961Z,15.05
2018-04-25T12:43:31.991Z,15.15
2018-04-25T12:44:32.007Z,15.22
2018-04-25T12:45:32.032Z,15.33
2018-04-25T12:46:32.050Z,15.41
2018-04-25T12:47:32.082Z,15.60
2018-04-25T12:48:32.090Z,15.62
2018-04-25T12:49:32.107Z,15.63
2018-04-25T12:50:32.131Z,15.67
2018-04-25T12:51:32.155Z,15.45
2018-04-25T12:52:32.173Z,15.47